sensor_id;sensor_type;location;lat;lon;timestamp;P1;durP1;ratioP1;P2;durP2;ratioP2
35530;SDS011;21637;53.352;-6.356;2023-03-01T00:02:20;8.32;;;4.38;;
35530;SDS011;21637;53.352;-6.356;2023-03-01T00:04:46;5.15;;;4.15;;
35530;SDS011;21637;53.352;-6.356;2023-03-01T00:07:12;7.80;;;4.38;;
35530;SDS011;21637;53.352;-6.356;2023-03-01T00:09:38;7.45;;;4.43;;
35530;SDS011;21637;53.352;-6.356;2023-03-01T00:12:05;6.00;;;4.13;;
35530;SDS011;21637;53.352;-6.356;2023-03-01T00:14:31;7.70;;;4.32;;
35530;SDS011;21637;53.352;-6.356;2023-03-01T00:16:57;7.82;;;4.75;;
35530;SDS011;21637;53.352;-6.356;2023-03-01T00:19:23;7.70;;;4.85;;
35530;SDS011;21637;53.352;-6.356;2023-03-01T00:21:49;7.88;;;5.00;;
35530;SDS011;21637;53.352;-6.356;2023-03-01T00:24:15;7.20;;;5.15;;
35530;SDS011;21637;53.352;-6.356;2023-03-01T00:26:40;7.15;;;5.32;;
35530;SDS011;21637;53.352;-6.356;2023-03-01T00:29:06;9.57;;;5.13;;
35530;SDS011;21637;53.352;-6.356;2023-03-01T00:31:32;9.05;;;5.32;;
35530;SDS011;21637;53.352;-6.356;2023-03-01T00:34:02;7.50;;;5.07;;
35530;SDS011;21637;53.352;-6.356;2023-03-01T00:36:30;7.18;;;5.20;;
35530;SDS011;21637;53.352;-6.356;2023-03-01T00:38:57;7.88;;;5.38;;
35530;SDS011;21637;53.352;-6.356;2023-03-01T00:41:23;7.47;;;5.13;;
35530;SDS011;21637;53.352;-6.356;2023-03-01T00:43:51;7.63;;;5.32;;
35530;SDS011;21637;53.352;-6.356;2023-03-01T00:46:22;7.38;;;5.30;;
35530;SDS011;21637;53.352;-6.356;2023-03-01T00:48:50;8.48;;;5.18;;
35530;SDS011;21637;53.352;-6.356;2023-03-01T00:51:18;8.48;;;5.20;;
35530;SDS011;21637;53.352;-6.356;2023-03-01T00:53:46;5.25;;;2.80;;
35530;SDS011;21637;53.352;-6.356;2023-03-01T00:56:12;4.63;;;2.17;;
35530;SDS011;21637;53.352;-6.356;2023-03-01T00:58:39;4.50;;;0.80;;
35530;SDS011;21637;53.352;-6.356;2023-03-01T01:01:15;2.60;;;0.60;;
35530;SDS011;21637;53.352;-6.356;2023-03-01T01:03:44;4.55;;;0.70;;
35530;SDS011;21637;53.352;-6.356;2023-03-01T01:06:15;4.70;;;0.90;;
35530;SDS011;21637;53.352;-6.356;2023-03-01T01:08:43;1.95;;;0.90;;
35530;SDS011;21637;53.352;-6.356;2023-03-01T01:11:09;2.05;;;0.65;;
35530;SDS011;21637;53.352;-6.356;2023-03-01T01:13:37;2.28;;;0.75;;
35530;SDS011;21637;53.352;-6.356;2023-03-01T01:16:04;0.75;;;0.40;;
35530;SDS011;21637;53.352;-6.356;2023-03-01T01:18:30;2.30;;;0.50;;
35530;SDS011;21637;53.352;-6.356;2023-03-01T01:20:55;4.00;;;0.70;;
35530;SDS011;21637;53.352;-6.356;2023-03-01T01:23:21;1.95;;;0.45;;
35530;SDS011;21637;53.352;-6.356;2023-03-01T01:25:47;1.52;;;0.47;;
35530;SDS011;21637;53.352;-6.356;2023-03-01T01:28:13;3.20;;;0.47;;
35530;SDS011;21637;53.352;-6.356;2023-03-01T01:30:39;3.33;;;0.45;;
35530;SDS011;21637;53.352;-6.356;2023-03-01T01:33:05;1.80;;;0.75;;
35530;SDS011;21637;53.352;-6.356;2023-03-01T01:35:31;2.70;;;0.88;;
35530;SDS011;21637;53.352;-6.356;2023-03-01T01:37:56;2.08;;;0.60;;
35530;SDS011;21637;53.352;-6.356;2023-03-01T01:40:22;2.40;;;0.43;;
35530;SDS011;21637;53.352;-6.356;2023-03-01T01:42:48;1.92;;;0.50;;
35530;SDS011;21637;53.352;-6.356;2023-03-01T01:48:02;1.35;;;0.70;;
35530;SDS011;21637;53.352;-6.356;2023-03-01T01:50:31;2.13;;;0.43;;
35530;SDS011;21637;53.352;-6.356;2023-03-01T01:53:04;1.33;;;0.65;;
35530;SDS011;21637;53.352;-6.356;2023-03-01T01:55:35;1.88;;;0.60;;
35530;SDS011;21637;53.352;-6.356;2023-03-01T01:58:04;2.03;;;0.55;;
35530;SDS011;21637;53.352;-6.356;2023-03-01T02:00:33;1.42;;;0.70;;
35530;SDS011;21637;53.352;-6.356;2023-03-01T02:03:00;1.52;;;0.40;;
35530;SDS011;21637;53.352;-6.356;2023-03-01T02:08:19;0.82;;;0.52;;
35530;SDS011;21637;53.352;-6.356;2023-03-01T02:10:45;0.88;;;0.40;;
35530;SDS011;21637;53.352;-6.356;2023-03-01T02:13:13;1.58;;;0.75;;
35530;SDS011;21637;53.352;-6.356;2023-03-01T02:15:39;1.33;;;0.60;;
35530;SDS011;21637;53.352;-6.356;2023-03-01T02:18:07;2.05;;;0.60;;
35530;SDS011;21637;53.352;-6.356;2023-03-01T02:20:40;2.53;;;0.50;;
35530;SDS011;21637;53.352;-6.356;2023-03-01T02:23:12;4.40;;;0.80;;
35530;SDS011;21637;53.352;-6.356;2023-03-01T02:28:49;2.92;;;0.55;;
35530;SDS011;21637;53.352;-6.356;2023-03-01T02:31:17;2.95;;;0.60;;
35530;SDS011;21637;53.352;-6.356;2023-03-01T02:34:03;2.80;;;0.68;;
35530;SDS011;21637;53.352;-6.356;2023-03-01T02:36:40;3.90;;;0.82;;
35530;SDS011;21637;53.352;-6.356;2023-03-01T02:39:17;2.38;;;1.05;;
35530;SDS011;21637;53.352;-6.356;2023-03-01T02:41:47;2.00;;;0.75;;
35530;SDS011;21637;53.352;-6.356;2023-03-01T02:44:16;3.60;;;0.60;;
35530;SDS011;21637;53.352;-6.356;2023-03-01T02:46:43;1.33;;;0.40;;
35530;SDS011;21637;53.352;-6.356;2023-03-01T02:49:25;3.85;;;0.50;;
35530;SDS011;21637;53.352;-6.356;2023-03-01T02:54:53;1.15;;;0.40;;
35530;SDS011;21637;53.352;-6.356;2023-03-01T02:57:28;2.13;;;0.60;;
35530;SDS011;21637;53.352;-6.356;2023-03-01T02:59:55;1.45;;;0.50;;
35530;SDS011;21637;53.352;-6.356;2023-03-01T03:02:24;3.28;;;0.43;;
35530;SDS011;21637;53.352;-6.356;2023-03-01T03:05:05;1.98;;;0.40;;
35530;SDS011;21637;53.352;-6.356;2023-03-01T03:07:36;2.00;;;0.40;;
35530;SDS011;21637;53.352;-6.356;2023-03-01T03:10:05;2.60;;;0.50;;
35530;SDS011;21637;53.352;-6.356;2023-03-01T03:12:32;4.38;;;0.50;;
35530;SDS011;21637;53.352;-6.356;2023-03-01T03:14:58;3.92;;;0.60;;
35530;SDS011;21637;53.352;-6.356;2023-03-01T03:17:24;1.92;;;0.40;;
35530;SDS011;21637;53.352;-6.356;2023-03-01T03:19:49;4.97;;;0.60;;
35530;SDS011;21637;53.352;-6.356;2023-03-01T03:22:15;2.10;;;0.40;;
35530;SDS011;21637;53.352;-6.356;2023-03-01T03:24:41;1.80;;;0.50;;
35530;SDS011;21637;53.352;-6.356;2023-03-01T03:27:07;1.35;;;0.60;;
35530;SDS011;21637;53.352;-6.356;2023-03-01T03:29:33;3.45;;;0.90;;
35530;SDS011;21637;53.352;-6.356;2023-03-01T03:31:59;3.05;;;0.60;;
35530;SDS011;21637;53.352;-6.356;2023-03-01T03:34:25;2.53;;;0.55;;
35530;SDS011;21637;53.352;-6.356;2023-03-01T03:36:54;2.40;;;0.40;;
35530;SDS011;21637;53.352;-6.356;2023-03-01T03:39:25;3.95;;;0.68;;
35530;SDS011;21637;53.352;-6.356;2023-03-01T03:41:51;2.00;;;0.47;;
35530;SDS011;21637;53.352;-6.356;2023-03-01T03:44:18;1.95;;;0.45;;
35530;SDS011;21637;53.352;-6.356;2023-03-01T03:46:44;3.42;;;0.60;;
35530;SDS011;21637;53.352;-6.356;2023-03-01T03:49:09;5.30;;;0.68;;
35530;SDS011;21637;53.352;-6.356;2023-03-01T03:51:35;2.00;;;0.50;;
35530;SDS011;21637;53.352;-6.356;2023-03-01T03:54:01;4.82;;;1.02;;
35530;SDS011;21637;53.352;-6.356;2023-03-01T03:56:27;3.17;;;0.80;;
35530;SDS011;21637;53.352;-6.356;2023-03-01T03:58:52;2.25;;;0.75;;
35530;SDS011;21637;53.352;-6.356;2023-03-01T04:01:18;2.75;;;0.50;;
35530;SDS011;21637;53.352;-6.356;2023-03-01T04:03:44;4.20;;;0.60;;
35530;SDS011;21637;53.352;-6.356;2023-03-01T04:06:13;1.85;;;0.40;;
35530;SDS011;21637;53.352;-6.356;2023-03-01T04:08:40;2.30;;;0.70;;
35530;SDS011;21637;53.352;-6.356;2023-03-01T04:11:06;2.85;;;0.50;;
35530;SDS011;21637;53.352;-6.356;2023-03-01T04:13:51;1.38;;;0.40;;
35530;SDS011;21637;53.352;-6.356;2023-03-01T04:16:18;1.35;;;0.43;;
35530;SDS011;21637;53.352;-6.356;2023-03-01T04:18:44;1.63;;;0.47;;
35530;SDS011;21637;53.352;-6.356;2023-03-01T04:21:10;0.88;;;0.40;;
35530;SDS011;21637;53.352;-6.356;2023-03-01T04:23:36;3.08;;;0.52;;
35530;SDS011;21637;53.352;-6.356;2023-03-01T04:26:03;2.25;;;0.88;;
35530;SDS011;21637;53.352;-6.356;2023-03-01T04:28:30;3.15;;;0.55;;
35530;SDS011;21637;53.352;-6.356;2023-03-01T04:31:05;0.45;;;0.30;;
35530;SDS011;21637;53.352;-6.356;2023-03-01T04:33:44;1.08;;;0.50;;
35530;SDS011;21637;53.352;-6.356;2023-03-01T04:36:21;1.65;;;0.40;;
35530;SDS011;21637;53.352;-6.356;2023-03-01T04:38:50;1.30;;;0.60;;
35530;SDS011;21637;53.352;-6.356;2023-03-01T04:41:17;1.55;;;0.38;;
35530;SDS011;21637;53.352;-6.356;2023-03-01T04:43:44;3.25;;;0.70;;
35530;SDS011;21637;53.352;-6.356;2023-03-01T04:46:11;3.83;;;0.82;;
35530;SDS011;21637;53.352;-6.356;2023-03-01T04:48:38;1.98;;;0.40;;
35530;SDS011;21637;53.352;-6.356;2023-03-01T04:51:05;0.43;;;0.30;;
35530;SDS011;21637;53.352;-6.356;2023-03-01T04:53:32;1.83;;;0.40;;
35530;SDS011;21637;53.352;-6.356;2023-03-01T04:55:58;2.63;;;0.70;;
35530;SDS011;21637;53.352;-6.356;2023-03-01T04:58:25;2.30;;;0.30;;
35530;SDS011;21637;53.352;-6.356;2023-03-01T05:00:52;1.67;;;0.50;;
35530;SDS011;21637;53.352;-6.356;2023-03-01T05:03:19;3.45;;;0.70;;
35530;SDS011;21637;53.352;-6.356;2023-03-01T05:05:47;2.30;;;0.50;;
35530;SDS011;21637;53.352;-6.356;2023-03-01T05:08:14;3.03;;;0.40;;
35530;SDS011;21637;53.352;-6.356;2023-03-01T05:10:44;1.20;;;0.52;;
35530;SDS011;21637;53.352;-6.356;2023-03-01T05:13:12;2.05;;;0.65;;
35530;SDS011;21637;53.352;-6.356;2023-03-01T05:15:40;1.23;;;0.50;;
35530;SDS011;21637;53.352;-6.356;2023-03-01T05:18:06;4.15;;;0.68;;
35530;SDS011;21637;53.352;-6.356;2023-03-01T05:20:36;2.20;;;0.47;;
35530;SDS011;21637;53.352;-6.356;2023-03-01T05:23:02;1.88;;;0.52;;
35530;SDS011;21637;53.352;-6.356;2023-03-01T05:25:30;2.50;;;1.30;;
35530;SDS011;21637;53.352;-6.356;2023-03-01T05:28:01;3.42;;;0.85;;
35530;SDS011;21637;53.352;-6.356;2023-03-01T05:30:31;3.33;;;0.50;;
35530;SDS011;21637;53.352;-6.356;2023-03-01T05:33:00;4.28;;;1.00;;
35530;SDS011;21637;53.352;-6.356;2023-03-01T05:35:26;2.42;;;0.60;;
35530;SDS011;21637;53.352;-6.356;2023-03-01T05:37:52;2.70;;;0.52;;
35530;SDS011;21637;53.352;-6.356;2023-03-01T05:40:19;5.45;;;0.70;;
35530;SDS011;21637;53.352;-6.356;2023-03-01T05:42:48;2.95;;;0.80;;
35530;SDS011;21637;53.352;-6.356;2023-03-01T05:45:19;2.57;;;0.77;;
35530;SDS011;21637;53.352;-6.356;2023-03-01T05:47:46;1.50;;;0.60;;
35530;SDS011;21637;53.352;-6.356;2023-03-01T05:50:14;1.05;;;0.60;;
35530;SDS011;21637;53.352;-6.356;2023-03-01T05:52:47;4.23;;;0.70;;
35530;SDS011;21637;53.352;-6.356;2023-03-01T05:55:15;1.83;;;0.47;;
35530;SDS011;21637;53.352;-6.356;2023-03-01T05:57:42;3.53;;;0.63;;
35530;SDS011;21637;53.352;-6.356;2023-03-01T06:00:09;4.43;;;0.73;;
35530;SDS011;21637;53.352;-6.356;2023-03-01T06:02:35;3.20;;;0.65;;
35530;SDS011;21637;53.352;-6.356;2023-03-01T06:05:01;1.65;;;0.50;;
35530;SDS011;21637;53.352;-6.356;2023-03-01T06:07:27;4.15;;;0.80;;
35530;SDS011;21637;53.352;-6.356;2023-03-01T06:09:53;2.22;;;0.80;;
35530;SDS011;21637;53.352;-6.356;2023-03-01T06:12:18;5.32;;;0.98;;
35530;SDS011;21637;53.352;-6.356;2023-03-01T06:14:45;3.85;;;1.10;;
35530;SDS011;21637;53.352;-6.356;2023-03-01T06:17:12;1.85;;;0.65;;
35530;SDS011;21637;53.352;-6.356;2023-03-01T06:19:37;4.45;;;0.90;;
35530;SDS011;21637;53.352;-6.356;2023-03-01T06:22:03;3.65;;;1.52;;
35530;SDS011;21637;53.352;-6.356;2023-03-01T06:24:29;3.10;;;0.70;;
35530;SDS011;21637;53.352;-6.356;2023-03-01T06:26:55;2.47;;;0.80;;
35530;SDS011;21637;53.352;-6.356;2023-03-01T06:29:20;4.20;;;0.70;;
35530;SDS011;21637;53.352;-6.356;2023-03-01T06:31:47;4.10;;;0.90;;
35530;SDS011;21637;53.352;-6.356;2023-03-01T06:34:14;2.20;;;0.60;;
35530;SDS011;21637;53.352;-6.356;2023-03-01T06:36:40;3.13;;;0.70;;
35530;SDS011;21637;53.352;-6.356;2023-03-01T06:39:06;4.85;;;0.90;;
35530;SDS011;21637;53.352;-6.356;2023-03-01T06:41:32;3.72;;;1.17;;
35530;SDS011;21637;53.352;-6.356;2023-03-01T06:43:58;5.95;;;1.67;;
35530;SDS011;21637;53.352;-6.356;2023-03-01T06:46:24;3.75;;;0.90;;
35530;SDS011;21637;53.352;-6.356;2023-03-01T06:48:50;6.82;;;1.45;;
35530;SDS011;21637;53.352;-6.356;2023-03-01T06:51:16;4.28;;;0.80;;
35530;SDS011;21637;53.352;-6.356;2023-03-01T06:53:42;5.35;;;0.80;;
35530;SDS011;21637;53.352;-6.356;2023-03-01T06:56:07;2.17;;;0.80;;
35530;SDS011;21637;53.352;-6.356;2023-03-01T06:58:33;3.80;;;0.55;;
35530;SDS011;21637;53.352;-6.356;2023-03-01T07:00:59;2.05;;;0.80;;
35530;SDS011;21637;53.352;-6.356;2023-03-01T07:03:25;2.40;;;0.73;;
35530;SDS011;21637;53.352;-6.356;2023-03-01T07:05:50;3.25;;;0.70;;
35530;SDS011;21637;53.352;-6.356;2023-03-01T07:08:17;2.72;;;0.80;;
35530;SDS011;21637;53.352;-6.356;2023-03-01T07:10:44;1.55;;;0.70;;
35530;SDS011;21637;53.352;-6.356;2023-03-01T07:13:09;8.85;;;0.93;;
35530;SDS011;21637;53.352;-6.356;2023-03-01T07:15:35;4.63;;;0.93;;
35530;SDS011;21637;53.352;-6.356;2023-03-01T07:18:01;3.42;;;0.90;;
35530;SDS011;21637;53.352;-6.356;2023-03-01T07:20:27;4.65;;;0.80;;
35530;SDS011;21637;53.352;-6.356;2023-03-01T07:22:55;2.65;;;0.50;;
35530;SDS011;21637;53.352;-6.356;2023-03-01T07:25:23;2.70;;;1.05;;
35530;SDS011;21637;53.352;-6.356;2023-03-01T07:27:53;5.05;;;0.63;;
35530;SDS011;21637;53.352;-6.356;2023-03-01T07:30:19;3.78;;;0.60;;
35530;SDS011;21637;53.352;-6.356;2023-03-01T07:32:45;4.10;;;0.88;;
35530;SDS011;21637;53.352;-6.356;2023-03-01T07:35:11;6.85;;;1.00;;
35530;SDS011;21637;53.352;-6.356;2023-03-01T07:37:37;1.73;;;0.68;;
35530;SDS011;21637;53.352;-6.356;2023-03-01T07:40:03;2.88;;;0.95;;
35530;SDS011;21637;53.352;-6.356;2023-03-01T07:42:29;4.03;;;0.82;;
35530;SDS011;21637;53.352;-6.356;2023-03-01T07:44:55;4.82;;;0.90;;
35530;SDS011;21637;53.352;-6.356;2023-03-01T07:47:20;1.73;;;0.47;;
35530;SDS011;21637;53.352;-6.356;2023-03-01T07:49:46;3.67;;;0.90;;
35530;SDS011;21637;53.352;-6.356;2023-03-01T07:52:11;4.03;;;0.77;;
35530;SDS011;21637;53.352;-6.356;2023-03-01T07:54:38;2.13;;;0.70;;
35530;SDS011;21637;53.352;-6.356;2023-03-01T07:57:03;1.67;;;0.80;;
35530;SDS011;21637;53.352;-6.356;2023-03-01T07:59:29;4.50;;;0.70;;
35530;SDS011;21637;53.352;-6.356;2023-03-01T08:01:55;1.92;;;0.70;;
35530;SDS011;21637;53.352;-6.356;2023-03-01T08:04:22;1.30;;;0.80;;
35530;SDS011;21637;53.352;-6.356;2023-03-01T08:06:49;6.80;;;1.00;;
35530;SDS011;21637;53.352;-6.356;2023-03-01T08:09:16;2.58;;;1.08;;
35530;SDS011;21637;53.352;-6.356;2023-03-01T08:11:41;2.80;;;1.00;;
35530;SDS011;21637;53.352;-6.356;2023-03-01T08:14:07;1.48;;;0.57;;
35530;SDS011;21637;53.352;-6.356;2023-03-01T08:16:33;4.70;;;1.33;;
35530;SDS011;21637;53.352;-6.356;2023-03-01T08:19:10;3.40;;;0.52;;
35530;SDS011;21637;53.352;-6.356;2023-03-01T08:21:36;1.60;;;0.60;;
35530;SDS011;21637;53.352;-6.356;2023-03-01T08:24:03;3.35;;;0.60;;
35530;SDS011;21637;53.352;-6.356;2023-03-01T08:26:31;2.92;;;0.75;;
35530;SDS011;21637;53.352;-6.356;2023-03-01T08:28:57;6.55;;;1.00;;
35530;SDS011;21637;53.352;-6.356;2023-03-01T08:31:34;3.10;;;0.35;;
35530;SDS011;21637;53.352;-6.356;2023-03-01T08:34:03;4.68;;;0.70;;
35530;SDS011;21637;53.352;-6.356;2023-03-01T08:36:41;2.30;;;0.50;;
35530;SDS011;21637;53.352;-6.356;2023-03-01T08:39:08;2.35;;;0.50;;
35530;SDS011;21637;53.352;-6.356;2023-03-01T08:41:35;8.80;;;0.70;;
35530;SDS011;21637;53.352;-6.356;2023-03-01T08:44:02;2.92;;;0.80;;
35530;SDS011;21637;53.352;-6.356;2023-03-01T08:46:29;4.20;;;0.90;;
35530;SDS011;21637;53.352;-6.356;2023-03-01T08:48:57;0.52;;;0.35;;
35530;SDS011;21637;53.352;-6.356;2023-03-01T08:51:23;2.97;;;0.73;;
35530;SDS011;21637;53.352;-6.356;2023-03-01T08:53:50;3.17;;;1.00;;
35530;SDS011;21637;53.352;-6.356;2023-03-01T08:56:16;1.08;;;0.70;;
35530;SDS011;21637;53.352;-6.356;2023-03-01T08:58:47;4.38;;;0.90;;
35530;SDS011;21637;53.352;-6.356;2023-03-01T09:01:14;5.20;;;0.82;;
35530;SDS011;21637;53.352;-6.356;2023-03-01T09:03:42;1.27;;;0.80;;
35530;SDS011;21637;53.352;-6.356;2023-03-01T09:06:08;3.42;;;0.77;;
35530;SDS011;21637;53.352;-6.356;2023-03-01T09:08:36;1.25;;;0.47;;
35530;SDS011;21637;53.352;-6.356;2023-03-01T09:11:07;3.95;;;0.90;;
35530;SDS011;21637;53.352;-6.356;2023-03-01T09:13:34;6.05;;;1.02;;
35530;SDS011;21637;53.352;-6.356;2023-03-01T09:16:01;2.22;;;0.80;;
35530;SDS011;21637;53.352;-6.356;2023-03-01T09:18:28;1.50;;;0.70;;
35530;SDS011;21637;53.352;-6.356;2023-03-01T09:21:04;1.13;;;0.52;;
35530;SDS011;21637;53.352;-6.356;2023-03-01T09:23:36;3.00;;;0.80;;
35530;SDS011;21637;53.352;-6.356;2023-03-01T09:26:04;1.90;;;0.45;;
35530;SDS011;21637;53.352;-6.356;2023-03-01T09:28:44;6.05;;;0.90;;
35530;SDS011;21637;53.352;-6.356;2023-03-01T09:31:10;2.78;;;0.60;;
35530;SDS011;21637;53.352;-6.356;2023-03-01T09:33:40;0.98;;;0.40;;
35530;SDS011;21637;53.352;-6.356;2023-03-01T09:36:07;3.08;;;0.55;;
35530;SDS011;21637;53.352;-6.356;2023-03-01T09:38:37;3.20;;;0.40;;
35530;SDS011;21637;53.352;-6.356;2023-03-01T09:41:08;2.22;;;0.40;;
35530;SDS011;21637;53.352;-6.356;2023-03-01T09:43:58;1.90;;;0.50;;
35530;SDS011;21637;53.352;-6.356;2023-03-01T09:46:37;1.35;;;0.40;;
35530;SDS011;21637;53.352;-6.356;2023-03-01T09:49:10;1.88;;;0.50;;
35530;SDS011;21637;53.352;-6.356;2023-03-01T09:51:42;3.58;;;0.55;;
35530;SDS011;21637;53.352;-6.356;2023-03-01T09:54:14;4.45;;;0.47;;
35530;SDS011;21637;53.352;-6.356;2023-03-01T09:56:40;5.22;;;0.60;;
35530;SDS011;21637;53.352;-6.356;2023-03-01T10:07:06;5.10;;;0.55;;
35530;SDS011;21637;53.352;-6.356;2023-03-01T10:09:51;2.50;;;0.80;;
35530;SDS011;21637;53.352;-6.356;2023-03-01T10:12:18;1.55;;;0.50;;
35530;SDS011;21637;53.352;-6.356;2023-03-01T10:14:53;5.65;;;0.82;;
35530;SDS011;21637;53.352;-6.356;2023-03-01T10:17:30;2.88;;;0.50;;
35530;SDS011;21637;53.352;-6.356;2023-03-01T10:20:05;2.22;;;0.57;;
35530;SDS011;21637;53.352;-6.356;2023-03-01T10:22:39;6.70;;;0.60;;
35530;SDS011;21637;53.352;-6.356;2023-03-01T10:25:04;4.22;;;0.40;;
35530;SDS011;21637;53.352;-6.356;2023-03-01T10:30:22;0.40;;;0.32;;
35530;SDS011;21637;53.352;-6.356;2023-03-01T10:32:59;2.05;;;0.40;;
35530;SDS011;21637;53.352;-6.356;2023-03-01T10:35:29;1.38;;;0.40;;
35530;SDS011;21637;53.352;-6.356;2023-03-01T10:37:58;1.67;;;0.40;;
35530;SDS011;21637;53.352;-6.356;2023-03-01T10:40:30;2.15;;;0.70;;
35530;SDS011;21637;53.352;-6.356;2023-03-01T10:42:57;1.13;;;0.35;;
35530;SDS011;21637;53.352;-6.356;2023-03-01T10:50:38;0.73;;;0.38;;
35530;SDS011;21637;53.352;-6.356;2023-03-01T10:53:22;3.65;;;0.52;;
35530;SDS011;21637;53.352;-6.356;2023-03-01T10:55:58;1.67;;;0.25;;
35530;SDS011;21637;53.352;-6.356;2023-03-01T10:58:30;0.82;;;0.40;;
35530;SDS011;21637;53.352;-6.356;2023-03-01T11:01:09;1.98;;;0.60;;
35530;SDS011;21637;53.352;-6.356;2023-03-01T11:03:43;2.03;;;0.50;;
35530;SDS011;21637;53.352;-6.356;2023-03-01T11:08:47;1.92;;;0.32;;
35530;SDS011;21637;53.352;-6.356;2023-03-01T11:13:53;2.97;;;0.60;;
35530;SDS011;21637;53.352;-6.356;2023-03-01T11:16:23;1.85;;;0.47;;
35530;SDS011;21637;53.352;-6.356;2023-03-01T11:21:39;2.60;;;0.63;;
35530;SDS011;21637;53.352;-6.356;2023-03-01T11:24:12;1.17;;;0.40;;
35530;SDS011;21637;53.352;-6.356;2023-03-01T11:26:41;2.00;;;0.52;;
35530;SDS011;21637;53.352;-6.356;2023-03-01T11:29:18;3.78;;;0.60;;
35530;SDS011;21637;53.352;-6.356;2023-03-01T11:32:02;2.25;;;0.50;;
35530;SDS011;21637;53.352;-6.356;2023-03-01T11:34:38;4.07;;;0.50;;
35530;SDS011;21637;53.352;-6.356;2023-03-01T11:37:13;4.07;;;0.60;;
35530;SDS011;21637;53.352;-6.356;2023-03-01T11:42:17;2.53;;;0.40;;
35530;SDS011;21637;53.352;-6.356;2023-03-01T11:44:49;2.25;;;0.40;;
35530;SDS011;21637;53.352;-6.356;2023-03-01T11:53:01;1.85;;;0.57;;
35530;SDS011;21637;53.352;-6.356;2023-03-01T11:58:26;0.63;;;0.28;;
35530;SDS011;21637;53.352;-6.356;2023-03-01T12:15:33;1.92;;;0.93;;
35530;SDS011;21637;53.352;-6.356;2023-03-01T12:21:12;2.70;;;0.52;;
35530;SDS011;21637;53.352;-6.356;2023-03-01T12:27:05;0.95;;;0.40;;
35530;SDS011;21637;53.352;-6.356;2023-03-01T12:40:16;2.60;;;0.52;;
35530;SDS011;21637;53.352;-6.356;2023-03-01T12:51:20;3.42;;;0.70;;
35530;SDS011;21637;53.352;-6.356;2023-03-01T12:53:51;1.08;;;0.43;;
35530;SDS011;21637;53.352;-6.356;2023-03-01T12:56:30;2.78;;;0.60;;
35530;SDS011;21637;53.352;-6.356;2023-03-01T13:01:28;4.40;;;0.75;;
35530;SDS011;21637;53.352;-6.356;2023-03-01T13:04:20;1.52;;;0.70;;
35530;SDS011;21637;53.352;-6.356;2023-03-01T13:46:58;4.30;;;0.50;;
35530;SDS011;21637;53.352;-6.356;2023-03-01T13:49:34;1.10;;;0.63;;
35530;SDS011;21637;53.352;-6.356;2023-03-01T13:52:13;0.55;;;0.30;;
35530;SDS011;21637;53.352;-6.356;2023-03-01T13:54:58;0.90;;;0.30;;
35530;SDS011;21637;53.352;-6.356;2023-03-01T13:57:30;2.78;;;0.50;;
35530;SDS011;21637;53.352;-6.356;2023-03-01T13:59:59;2.95;;;0.93;;
35530;SDS011;21637;53.352;-6.356;2023-03-01T14:02:25;1.13;;;0.40;;
35530;SDS011;21637;53.352;-6.356;2023-03-01T14:04:57;1.75;;;0.68;;
35530;SDS011;21637;53.352;-6.356;2023-03-01T14:07:24;2.30;;;0.40;;
35530;SDS011;21637;53.352;-6.356;2023-03-01T14:09:55;2.88;;;0.30;;
35530;SDS011;21637;53.352;-6.356;2023-03-01T14:20:41;1.70;;;0.50;;
35530;SDS011;21637;53.352;-6.356;2023-03-01T14:23:13;2.05;;;0.40;;
35530;SDS011;21637;53.352;-6.356;2023-03-01T14:28:17;1.23;;;0.30;;
35530;SDS011;21637;53.352;-6.356;2023-03-01T14:30:47;3.88;;;0.50;;
35530;SDS011;21637;53.352;-6.356;2023-03-01T14:33:33;8.45;;;1.00;;
35530;SDS011;21637;53.352;-6.356;2023-03-01T14:36:02;2.47;;;0.50;;
35530;SDS011;21637;53.352;-6.356;2023-03-01T14:41:15;3.17;;;0.57;;
35530;SDS011;21637;53.352;-6.356;2023-03-01T14:43:53;2.05;;;0.60;;
35530;SDS011;21637;53.352;-6.356;2023-03-01T14:49:09;1.52;;;0.60;;
35530;SDS011;21637;53.352;-6.356;2023-03-01T14:51:39;2.15;;;0.50;;
35530;SDS011;21637;53.352;-6.356;2023-03-01T14:56:51;3.60;;;0.82;;
35530;SDS011;21637;53.352;-6.356;2023-03-01T14:59:22;2.47;;;0.70;;
35530;SDS011;21637;53.352;-6.356;2023-03-01T15:01:49;5.53;;;0.70;;
35530;SDS011;21637;53.352;-6.356;2023-03-01T15:04:19;2.53;;;0.70;;
35530;SDS011;21637;53.352;-6.356;2023-03-01T15:06:47;3.78;;;0.75;;
35530;SDS011;21637;53.352;-6.356;2023-03-01T15:09:16;3.53;;;0.70;;
35530;SDS011;21637;53.352;-6.356;2023-03-01T15:11:43;1.65;;;0.68;;
35530;SDS011;21637;53.352;-6.356;2023-03-01T15:20:01;2.60;;;0.97;;
35530;SDS011;21637;53.352;-6.356;2023-03-01T15:22:29;4.30;;;0.77;;
35530;SDS011;21637;53.352;-6.356;2023-03-01T15:24:55;5.50;;;0.73;;
35530;SDS011;21637;53.352;-6.356;2023-03-01T15:27:24;4.38;;;0.43;;
35530;SDS011;21637;53.352;-6.356;2023-03-01T15:29:53;2.00;;;0.50;;
35530;SDS011;21637;53.352;-6.356;2023-03-01T15:32:23;3.60;;;0.50;;
35530;SDS011;21637;53.352;-6.356;2023-03-01T15:34:55;2.30;;;0.70;;
35530;SDS011;21637;53.352;-6.356;2023-03-01T15:37:39;1.00;;;0.35;;
35530;SDS011;21637;53.352;-6.356;2023-03-01T15:40:18;3.28;;;1.00;;
35530;SDS011;21637;53.352;-6.356;2023-03-01T15:42:56;1.67;;;0.63;;
35530;SDS011;21637;53.352;-6.356;2023-03-01T15:45:24;1.90;;;0.40;;
35530;SDS011;21637;53.352;-6.356;2023-03-01T15:47:56;3.45;;;0.75;;
35530;SDS011;21637;53.352;-6.356;2023-03-01T15:50:41;2.75;;;0.60;;
35530;SDS011;21637;53.352;-6.356;2023-03-01T15:53:12;4.35;;;1.80;;
35530;SDS011;21637;53.352;-6.356;2023-03-01T15:55:40;2.40;;;1.08;;
35530;SDS011;21637;53.352;-6.356;2023-03-01T15:58:10;2.03;;;0.70;;
35530;SDS011;21637;53.352;-6.356;2023-03-01T16:00:38;4.43;;;1.58;;
35530;SDS011;21637;53.352;-6.356;2023-03-01T16:03:05;2.58;;;1.02;;
35530;SDS011;21637;53.352;-6.356;2023-03-01T16:05:32;3.58;;;1.40;;
35530;SDS011;21637;53.352;-6.356;2023-03-01T16:08:02;2.60;;;1.10;;
35530;SDS011;21637;53.352;-6.356;2023-03-01T16:10:28;3.50;;;0.93;;
35530;SDS011;21637;53.352;-6.356;2023-03-01T16:12:56;2.63;;;1.35;;
35530;SDS011;21637;53.352;-6.356;2023-03-01T16:15:24;1.75;;;0.77;;
35530;SDS011;21637;53.352;-6.356;2023-03-01T16:17:57;1.70;;;0.60;;
35530;SDS011;21637;53.352;-6.356;2023-03-01T16:20:26;2.40;;;0.50;;
35530;SDS011;21637;53.352;-6.356;2023-03-01T16:22:53;1.52;;;0.63;;
35530;SDS011;21637;53.352;-6.356;2023-03-01T16:25:19;1.83;;;0.77;;
35530;SDS011;21637;53.352;-6.356;2023-03-01T16:27:46;1.15;;;0.43;;
35530;SDS011;21637;53.352;-6.356;2023-03-01T16:30:13;3.90;;;1.20;;
35530;SDS011;21637;53.352;-6.356;2023-03-01T16:32:41;1.60;;;0.68;;
35530;SDS011;21637;53.352;-6.356;2023-03-01T16:35:09;3.38;;;0.70;;
35530;SDS011;21637;53.352;-6.356;2023-03-01T16:37:36;0.82;;;0.40;;
35530;SDS011;21637;53.352;-6.356;2023-03-01T16:40:03;2.92;;;0.73;;
35530;SDS011;21637;53.352;-6.356;2023-03-01T16:42:33;4.07;;;2.30;;
35530;SDS011;21637;53.352;-6.356;2023-03-01T16:45:00;2.28;;;0.77;;
35530;SDS011;21637;53.352;-6.356;2023-03-01T16:47:26;4.68;;;1.00;;
35530;SDS011;21637;53.352;-6.356;2023-03-01T16:49:53;3.92;;;0.80;;
35530;SDS011;21637;53.352;-6.356;2023-03-01T16:52:19;3.53;;;0.60;;
35530;SDS011;21637;53.352;-6.356;2023-03-01T16:54:46;2.15;;;0.77;;
35530;SDS011;21637;53.352;-6.356;2023-03-01T16:57:13;5.22;;;0.98;;
35530;SDS011;21637;53.352;-6.356;2023-03-01T16:59:39;3.55;;;1.23;;
35530;SDS011;21637;53.352;-6.356;2023-03-01T17:02:06;5.28;;;0.90;;
35530;SDS011;21637;53.352;-6.356;2023-03-01T17:04:38;5.53;;;1.25;;
35530;SDS011;21637;53.352;-6.356;2023-03-01T17:07:04;5.38;;;1.20;;
35530;SDS011;21637;53.352;-6.356;2023-03-01T17:09:34;2.17;;;0.90;;
35530;SDS011;21637;53.352;-6.356;2023-03-01T17:12:01;7.35;;;0.90;;
35530;SDS011;21637;53.352;-6.356;2023-03-01T17:14:27;2.83;;;0.82;;
35530;SDS011;21637;53.352;-6.356;2023-03-01T17:16:54;2.25;;;0.70;;
35530;SDS011;21637;53.352;-6.356;2023-03-01T17:19:20;3.50;;;0.80;;